sensor_id;sensor_type;location;lat;lon;timestamp;P1;durP1;ratioP1;P2;durP2;ratioP2
12908;SDS011;6522;49.622;6.126;2023-07-20T00:01:56;8.10;;;7.40;;
12908;SDS011;6522;49.622;6.126;2023-07-20T00:04:43;8.88;;;8.18;;
12908;SDS011;6522;49.622;6.126;2023-07-20T00:07:30;9.20;;;8.70;;
12908;SDS011;6522;49.622;6.126;2023-07-20T00:10:16;10.32;;;9.35;;
12908;SDS011;6522;49.622;6.126;2023-07-20T00:13:03;9.77;;;8.95;;
12908;SDS011;6522;49.622;6.126;2023-07-20T00:15:51;8.88;;;8.27;;
12908;SDS011;6522;49.622;6.126;2023-07-20T00:18:37;10.02;;;8.27;;
12908;SDS011;6522;49.622;6.126;2023-07-20T00:21:24;8.70;;;7.70;;
12908;SDS011;6522;49.622;6.126;2023-07-20T00:24:10;8.20;;;7.45;;
12908;SDS011;6522;49.622;6.126;2023-07-20T00:26:57;8.00;;;7.50;;
12908;SDS011;6522;49.622;6.126;2023-07-20T00:29:44;7.93;;;7.20;;
12908;SDS011;6522;49.622;6.126;2023-07-20T00:32:30;7.70;;;7.10;;
12908;SDS011;6522;49.622;6.126;2023-07-20T00:35:17;7.07;;;6.47;;
12908;SDS011;6522;49.622;6.126;2023-07-20T00:38:04;7.20;;;6.70;;
12908;SDS011;6522;49.622;6.126;2023-07-20T00:40:51;6.30;;;5.70;;
12908;SDS011;6522;49.622;6.126;2023-07-20T00:43:38;8.00;;;6.43;;
12908;SDS011;6522;49.622;6.126;2023-07-20T00:46:25;7.20;;;6.60;;
12908;SDS011;6522;49.622;6.126;2023-07-20T00:49:11;8.20;;;7.60;;
12908;SDS011;6522;49.622;6.126;2023-07-20T00:51:59;8.60;;;8.00;;
12908;SDS011;6522;49.622;6.126;2023-07-20T00:54:45;8.13;;;7.53;;
12908;SDS011;6522;49.622;6.126;2023-07-20T00:57:31;7.28;;;6.57;;
12908;SDS011;6522;49.622;6.126;2023-07-20T01:00:18;8.13;;;7.32;;
12908;SDS011;6522;49.622;6.126;2023-07-20T01:03:05;7.30;;;6.70;;
12908;SDS011;6522;49.622;6.126;2023-07-20T01:05:54;7.93;;;6.80;;
12908;SDS011;6522;49.622;6.126;2023-07-20T01:11:45;6.55;;;6.15;;
12908;SDS011;6522;49.622;6.126;2023-07-20T01:14:30;9.10;;;6.82;;
12908;SDS011;6522;49.622;6.126;2023-07-20T01:17:16;6.80;;;6.30;;
12908;SDS011;6522;49.622;6.126;2023-07-20T01:20:03;6.45;;;5.70;;
12908;SDS011;6522;49.622;6.126;2023-07-20T01:28:37;6.75;;;5.10;;
12908;SDS011;6522;49.622;6.126;2023-07-20T01:31:28;6.97;;;6.40;;
12908;SDS011;6522;49.622;6.126;2023-07-20T01:34:15;7.57;;;6.62;;
12908;SDS011;6522;49.622;6.126;2023-07-20T01:37:02;6.10;;;5.70;;
12908;SDS011;6522;49.622;6.126;2023-07-20T01:39:48;9.38;;;6.25;;
12908;SDS011;6522;49.622;6.126;2023-07-20T01:42:35;6.70;;;6.22;;
12908;SDS011;6522;49.622;6.126;2023-07-20T01:45:22;6.32;;;5.72;;
12908;SDS011;6522;49.622;6.126;2023-07-20T01:48:08;6.07;;;5.18;;
12908;SDS011;6522;49.622;6.126;2023-07-20T01:50:55;6.70;;;5.82;;
12908;SDS011;6522;49.622;6.126;2023-07-20T01:53:42;6.40;;;5.85;;
12908;SDS011;6522;49.622;6.126;2023-07-20T01:56:29;9.52;;;6.07;;
12908;SDS011;6522;49.622;6.126;2023-07-20T01:59:16;6.80;;;5.07;;
12908;SDS011;6522;49.622;6.126;2023-07-20T02:02:03;8.65;;;6.32;;
12908;SDS011;6522;49.622;6.126;2023-07-20T02:04:50;5.72;;;5.22;;
12908;SDS011;6522;49.622;6.126;2023-07-20T02:07:37;5.97;;;4.93;;
12908;SDS011;6522;49.622;6.126;2023-07-20T02:10:24;6.93;;;6.10;;
12908;SDS011;6522;49.622;6.126;2023-07-20T02:13:10;6.55;;;5.65;;
12908;SDS011;6522;49.622;6.126;2023-07-20T02:15:57;7.40;;;4.65;;
12908;SDS011;6522;49.622;6.126;2023-07-20T02:18:44;5.10;;;4.70;;
12908;SDS011;6522;49.622;6.126;2023-07-20T02:21:31;6.60;;;6.10;;
12908;SDS011;6522;49.622;6.126;2023-07-20T02:24:17;8.02;;;5.22;;
12908;SDS011;6522;49.622;6.126;2023-07-20T02:27:04;5.75;;;4.65;;
12908;SDS011;6522;49.622;6.126;2023-07-20T02:29:51;5.97;;;4.62;;
12908;SDS011;6522;49.622;6.126;2023-07-20T02:32:38;4.62;;;4.22;;
12908;SDS011;6522;49.622;6.126;2023-07-20T02:35:24;5.00;;;4.55;;
12908;SDS011;6522;49.622;6.126;2023-07-20T02:38:11;4.90;;;4.43;;
12908;SDS011;6522;49.622;6.126;2023-07-20T02:40:58;5.05;;;4.55;;
12908;SDS011;6522;49.622;6.126;2023-07-20T02:43:44;5.25;;;4.72;;
12908;SDS011;6522;49.622;6.126;2023-07-20T02:46:31;6.18;;;4.85;;
12908;SDS011;6522;49.622;6.126;2023-07-20T02:49:18;6.97;;;5.35;;
12908;SDS011;6522;49.622;6.126;2023-07-20T02:52:04;5.43;;;4.90;;
12908;SDS011;6522;49.622;6.126;2023-07-20T02:54:51;5.07;;;4.55;;
12908;SDS011;6522;49.622;6.126;2023-07-20T02:57:38;9.15;;;4.70;;
12908;SDS011;6522;49.622;6.126;2023-07-20T03:00:24;5.22;;;4.72;;
12908;SDS011;6522;49.622;6.126;2023-07-20T03:03:11;4.97;;;4.20;;
12908;SDS011;6522;49.622;6.126;2023-07-20T03:05:58;5.72;;;4.65;;
12908;SDS011;6522;49.622;6.126;2023-07-20T03:08:45;5.18;;;4.30;;
12908;SDS011;6522;49.622;6.126;2023-07-20T03:11:32;5.45;;;4.75;;
12908;SDS011;6522;49.622;6.126;2023-07-20T03:14:18;4.45;;;4.05;;
12908;SDS011;6522;49.622;6.126;2023-07-20T03:17:05;4.68;;;3.92;;
12908;SDS011;6522;49.622;6.126;2023-07-20T03:19:52;8.77;;;4.40;;
12908;SDS011;6522;49.622;6.126;2023-07-20T03:22:39;4.60;;;4.20;;
12908;SDS011;6522;49.622;6.126;2023-07-20T03:25:26;5.15;;;4.37;;
12908;SDS011;6522;49.622;6.126;2023-07-20T03:28:12;5.25;;;4.37;;
12908;SDS011;6522;49.622;6.126;2023-07-20T03:30:59;7.10;;;4.22;;
12908;SDS011;6522;49.622;6.126;2023-07-20T03:33:46;8.93;;;4.85;;
12908;SDS011;6522;49.622;6.126;2023-07-20T03:36:32;5.25;;;3.90;;
12908;SDS011;6522;49.622;6.126;2023-07-20T03:39:19;5.43;;;4.30;;
12908;SDS011;6522;49.622;6.126;2023-07-20T03:42:06;7.07;;;4.10;;
12908;SDS011;6522;49.622;6.126;2023-07-20T03:44:52;6.55;;;4.45;;
12908;SDS011;6522;49.622;6.126;2023-07-20T03:47:39;6.82;;;5.18;;
12908;SDS011;6522;49.622;6.126;2023-07-20T03:50:26;5.60;;;4.12;;
12908;SDS011;6522;49.622;6.126;2023-07-20T03:53:13;6.65;;;4.75;;
12908;SDS011;6522;49.622;6.126;2023-07-20T03:55:59;6.47;;;4.55;;
12908;SDS011;6522;49.622;6.126;2023-07-20T03:58:46;7.32;;;4.65;;
12908;SDS011;6522;49.622;6.126;2023-07-20T04:01:33;6.05;;;4.70;;
12908;SDS011;6522;49.622;6.126;2023-07-20T04:04:20;6.78;;;4.93;;
12908;SDS011;6522;49.622;6.126;2023-07-20T04:07:07;7.53;;;4.62;;
12908;SDS011;6522;49.622;6.126;2023-07-20T04:09:54;6.82;;;4.60;;
12908;SDS011;6522;49.622;6.126;2023-07-20T04:12:41;5.40;;;4.65;;
12908;SDS011;6522;49.622;6.126;2023-07-20T04:15:28;5.57;;;4.10;;
12908;SDS011;6522;49.622;6.126;2023-07-20T04:18:15;7.43;;;4.30;;
12908;SDS011;6522;49.622;6.126;2023-07-20T04:21:01;4.87;;;4.37;;
12908;SDS011;6522;49.622;6.126;2023-07-20T04:23:48;5.62;;;4.90;;
12908;SDS011;6522;49.622;6.126;2023-07-20T04:26:35;5.03;;;4.53;;
12908;SDS011;6522;49.622;6.126;2023-07-20T04:29:22;5.30;;;4.60;;
12908;SDS011;6522;49.622;6.126;2023-07-20T04:32:08;8.50;;;4.60;;
12908;SDS011;6522;49.622;6.126;2023-07-20T04:34:55;5.95;;;4.32;;
12908;SDS011;6522;49.622;6.126;2023-07-20T04:37:42;5.95;;;3.83;;
12908;SDS011;6522;49.622;6.126;2023-07-20T04:40:29;6.47;;;5.00;;
12908;SDS011;6522;49.622;6.126;2023-07-20T04:43:16;5.40;;;4.85;;
12908;SDS011;6522;49.622;6.126;2023-07-20T04:46:03;3.65;;;3.35;;
12908;SDS011;6522;49.622;6.126;2023-07-20T04:48:50;9.35;;;4.53;;
12908;SDS011;6522;49.622;6.126;2023-07-20T04:51:37;6.70;;;4.75;;
12908;SDS011;6522;49.622;6.126;2023-07-20T04:54:24;7.40;;;5.50;;
12908;SDS011;6522;49.622;6.126;2023-07-20T04:57:11;12.25;;;4.93;;
12908;SDS011;6522;49.622;6.126;2023-07-20T04:59:57;6.80;;;4.30;;
12908;SDS011;6522;49.622;6.126;2023-07-20T05:02:44;5.00;;;4.50;;
12908;SDS011;6522;49.622;6.126;2023-07-20T05:05:31;7.80;;;4.30;;
12908;SDS011;6522;49.622;6.126;2023-07-20T05:08:18;6.15;;;4.60;;
12908;SDS011;6522;49.622;6.126;2023-07-20T05:11:04;5.45;;;4.93;;
12908;SDS011;6522;49.622;6.126;2023-07-20T05:13:51;8.85;;;5.05;;
12908;SDS011;6522;49.622;6.126;2023-07-20T05:16:38;5.20;;;4.70;;
12908;SDS011;6522;49.622;6.126;2023-07-20T05:19:25;7.95;;;4.43;;
12908;SDS011;6522;49.622;6.126;2023-07-20T05:22:13;12.68;;;4.80;;
12908;SDS011;6522;49.622;6.126;2023-07-20T05:24:58;7.25;;;4.97;;
12908;SDS011;6522;49.622;6.126;2023-07-20T05:27:45;5.15;;;4.65;;
12908;SDS011;6522;49.622;6.126;2023-07-20T05:30:32;9.27;;;4.80;;
12908;SDS011;6522;49.622;6.126;2023-07-20T05:33:19;8.90;;;4.95;;
12908;SDS011;6522;49.622;6.126;2023-07-20T05:36:26;9.57;;;5.45;;
12908;SDS011;6522;49.622;6.126;2023-07-20T05:39:13;5.45;;;4.95;;
12908;SDS011;6522;49.622;6.126;2023-07-20T05:41:59;7.10;;;5.00;;
12908;SDS011;6522;49.622;6.126;2023-07-20T05:44:46;6.05;;;5.40;;
12908;SDS011;6522;49.622;6.126;2023-07-20T05:47:32;8.82;;;5.12;;
12908;SDS011;6522;49.622;6.126;2023-07-20T05:50:19;6.50;;;4.90;;
12908;SDS011;6522;49.622;6.126;2023-07-20T05:53:06;8.63;;;5.60;;
12908;SDS011;6522;49.622;6.126;2023-07-20T05:55:53;8.82;;;5.60;;
12908;SDS011;6522;49.622;6.126;2023-07-20T05:58:40;6.85;;;5.60;;
12908;SDS011;6522;49.622;6.126;2023-07-20T06:01:27;9.48;;;5.93;;
12908;SDS011;6522;49.622;6.126;2023-07-20T06:04:13;8.65;;;5.35;;
12908;SDS011;6522;49.622;6.126;2023-07-20T06:07:00;7.82;;;5.95;;
12908;SDS011;6522;49.622;6.126;2023-07-20T06:09:47;6.50;;;5.90;;
12908;SDS011;6522;49.622;6.126;2023-07-20T06:12:34;8.85;;;7.22;;
12908;SDS011;6522;49.622;6.126;2023-07-20T06:15:27;9.15;;;7.25;;
12908;SDS011;6522;49.622;6.126;2023-07-20T06:18:13;10.07;;;6.43;;
12908;SDS011;6522;49.622;6.126;2023-07-20T06:21:00;11.57;;;6.78;;
12908;SDS011;6522;49.622;6.126;2023-07-20T06:23:46;10.48;;;7.25;;
12908;SDS011;6522;49.622;6.126;2023-07-20T06:26:33;9.70;;;8.30;;
12908;SDS011;6522;49.622;6.126;2023-07-20T06:29:23;8.90;;;7.45;;
12908;SDS011;6522;49.622;6.126;2023-07-20T06:32:10;8.32;;;7.28;;
12908;SDS011;6522;49.622;6.126;2023-07-20T06:34:57;8.70;;;8.00;;
12908;SDS011;6522;49.622;6.126;2023-07-20T06:37:44;8.95;;;7.55;;
12908;SDS011;6522;49.622;6.126;2023-07-20T06:40:31;11.23;;;9.57;;
12908;SDS011;6522;49.622;6.126;2023-07-20T06:43:17;9.40;;;8.15;;
12908;SDS011;6522;49.622;6.126;2023-07-20T06:46:04;9.60;;;8.70;;
12908;SDS011;6522;49.622;6.126;2023-07-20T06:48:50;11.48;;;9.77;;
12908;SDS011;6522;49.622;6.126;2023-07-20T06:51:37;10.50;;;8.73;;
12908;SDS011;6522;49.622;6.126;2023-07-20T06:54:24;11.07;;;9.32;;
12908;SDS011;6522;49.622;6.126;2023-07-20T06:57:10;12.65;;;11.55;;
12908;SDS011;6522;49.622;6.126;2023-07-20T06:59:57;12.68;;;10.00;;
12908;SDS011;6522;49.622;6.126;2023-07-20T07:02:44;10.73;;;9.82;;
12908;SDS011;6522;49.622;6.126;2023-07-20T07:05:32;10.52;;;9.52;;
12908;SDS011;6522;49.622;6.126;2023-07-20T07:08:17;11.63;;;10.60;;
12908;SDS011;6522;49.622;6.126;2023-07-20T07:11:04;12.35;;;11.35;;
12908;SDS011;6522;49.622;6.126;2023-07-20T07:13:51;12.10;;;11.05;;
12908;SDS011;6522;49.622;6.126;2023-07-20T07:16:37;12.60;;;11.70;;
12908;SDS011;6522;49.622;6.126;2023-07-20T07:19:24;12.82;;;11.75;;
12908;SDS011;6522;49.622;6.126;2023-07-20T07:22:11;12.13;;;11.12;;
12908;SDS011;6522;49.622;6.126;2023-07-20T07:24:58;12.35;;;11.35;;
12908;SDS011;6522;49.622;6.126;2023-07-20T07:27:44;12.40;;;11.43;;
12908;SDS011;6522;49.622;6.126;2023-07-20T07:30:31;12.30;;;11.20;;
12908;SDS011;6522;49.622;6.126;2023-07-20T07:33:18;12.82;;;11.55;;
12908;SDS011;6522;49.622;6.126;2023-07-20T07:36:05;13.10;;;11.82;;
12908;SDS011;6522;49.622;6.126;2023-07-20T07:38:52;10.98;;;10.07;;
12908;SDS011;6522;49.622;6.126;2023-07-20T07:41:38;12.18;;;11.18;;
12908;SDS011;6522;49.622;6.126;2023-07-20T07:44:25;12.43;;;11.30;;
12908;SDS011;6522;49.622;6.126;2023-07-20T07:47:12;12.40;;;11.30;;
12908;SDS011;6522;49.622;6.126;2023-07-20T07:49:59;10.70;;;9.77;;
12908;SDS011;6522;49.622;6.126;2023-07-20T07:52:45;10.43;;;9.38;;
12908;SDS011;6522;49.622;6.126;2023-07-20T07:55:32;13.18;;;12.02;;
12908;SDS011;6522;49.622;6.126;2023-07-20T07:58:19;11.90;;;10.82;;
12908;SDS011;6522;49.622;6.126;2023-07-20T08:01:06;12.05;;;10.93;;
12908;SDS011;6522;49.622;6.126;2023-07-20T08:03:52;13.05;;;12.15;;
12908;SDS011;6522;49.622;6.126;2023-07-20T08:06:39;13.50;;;12.40;;
12908;SDS011;6522;49.622;6.126;2023-07-20T08:09:26;12.60;;;11.60;;
12908;SDS011;6522;49.622;6.126;2023-07-20T08:12:13;12.65;;;11.45;;
12908;SDS011;6522;49.622;6.126;2023-07-20T08:15:00;12.68;;;11.68;;
12908;SDS011;6522;49.622;6.126;2023-07-20T08:17:47;12.30;;;11.20;;
12908;SDS011;6522;49.622;6.126;2023-07-20T08:20:33;12.60;;;11.73;;
12908;SDS011;6522;49.622;6.126;2023-07-20T08:23:20;12.75;;;11.70;;
12908;SDS011;6522;49.622;6.126;2023-07-20T08:26:07;12.55;;;11.65;;
12908;SDS011;6522;49.622;6.126;2023-07-20T08:28:53;13.50;;;12.40;;
12908;SDS011;6522;49.622;6.126;2023-07-20T08:31:40;14.13;;;13.13;;
12908;SDS011;6522;49.622;6.126;2023-07-20T08:34:26;13.50;;;12.70;;
12908;SDS011;6522;49.622;6.126;2023-07-20T08:37:13;12.23;;;11.43;;
12908;SDS011;6522;49.622;6.126;2023-07-20T08:40:00;15.20;;;14.20;;
12908;SDS011;6522;49.622;6.126;2023-07-20T08:42:46;12.98;;;11.98;;
12908;SDS011;6522;49.622;6.126;2023-07-20T08:45:34;14.13;;;13.20;;
12908;SDS011;6522;49.622;6.126;2023-07-20T08:48:20;12.98;;;12.07;;
12908;SDS011;6522;49.622;6.126;2023-07-20T08:51:07;13.15;;;12.20;;
12908;SDS011;6522;49.622;6.126;2023-07-20T08:53:54;14.50;;;13.77;;
12908;SDS011;6522;49.622;6.126;2023-07-20T08:56:41;14.73;;;13.73;;
12908;SDS011;6522;49.622;6.126;2023-07-20T08:59:28;15.57;;;14.57;;
12908;SDS011;6522;49.622;6.126;2023-07-20T09:02:15;17.50;;;16.50;;
12908;SDS011;6522;49.622;6.126;2023-07-20T09:05:02;15.43;;;14.45;;
12908;SDS011;6522;49.622;6.126;2023-07-20T09:07:48;15.55;;;14.75;;
12908;SDS011;6522;49.622;6.126;2023-07-20T09:10:35;19.77;;;18.67;;
12908;SDS011;6522;49.622;6.126;2023-07-20T09:13:24;17.50;;;16.40;;
12908;SDS011;6522;49.622;6.126;2023-07-20T09:16:09;19.50;;;18.50;;
12908;SDS011;6522;49.622;6.126;2023-07-20T09:18:57;19.30;;;18.30;;
12908;SDS011;6522;49.622;6.126;2023-07-20T09:21:49;19.93;;;18.60;;
12908;SDS011;6522;49.622;6.126;2023-07-20T09:24:32;18.10;;;17.02;;
12908;SDS011;6522;49.622;6.126;2023-07-20T09:27:19;23.03;;;21.87;;
12908;SDS011;6522;49.622;6.126;2023-07-20T09:30:06;19.90;;;18.70;;
12908;SDS011;6522;49.622;6.126;2023-07-20T09:32:55;21.27;;;19.97;;
12908;SDS011;6522;49.622;6.126;2023-07-20T09:35:42;20.87;;;19.87;;
12908;SDS011;6522;49.622;6.126;2023-07-20T09:38:29;19.87;;;18.87;;
12908;SDS011;6522;49.622;6.126;2023-07-20T09:41:15;20.63;;;19.53;;
12908;SDS011;6522;49.622;6.126;2023-07-20T09:44:02;20.80;;;19.70;;
12908;SDS011;6522;49.622;6.126;2023-07-20T09:46:49;20.17;;;19.17;;
12908;SDS011;6522;49.622;6.126;2023-07-20T09:49:39;20.60;;;19.60;;
12908;SDS011;6522;49.622;6.126;2023-07-20T09:52:25;21.47;;;20.40;;
12908;SDS011;6522;49.622;6.126;2023-07-20T09:55:12;21.00;;;20.00;;
12908;SDS011;6522;49.622;6.126;2023-07-20T09:57:58;20.40;;;19.40;;
12908;SDS011;6522;49.622;6.126;2023-07-20T10:00:46;20.20;;;19.07;;
12908;SDS011;6522;49.622;6.126;2023-07-20T10:03:35;21.17;;;19.93;;
12908;SDS011;6522;49.622;6.126;2023-07-20T10:06:23;20.97;;;19.87;;
12908;SDS011;6522;49.622;6.126;2023-07-20T10:09:09;19.73;;;18.83;;
12908;SDS011;6522;49.622;6.126;2023-07-20T10:11:55;20.80;;;19.70;;
12908;SDS011;6522;49.622;6.126;2023-07-20T10:14:57;21.57;;;20.37;;
12908;SDS011;6522;49.622;6.126;2023-07-20T10:17:29;21.43;;;20.30;;
12908;SDS011;6522;49.622;6.126;2023-07-20T10:20:17;20.70;;;19.70;;
12908;SDS011;6522;49.622;6.126;2023-07-20T10:23:03;21.10;;;19.90;;
12908;SDS011;6522;49.622;6.126;2023-07-20T10:25:53;20.73;;;19.73;;
12908;SDS011;6522;49.622;6.126;2023-07-20T10:28:39;21.97;;;20.57;;
12908;SDS011;6522;49.622;6.126;2023-07-20T10:31:26;18.53;;;17.53;;
12908;SDS011;6522;49.622;6.126;2023-07-20T10:34:13;21.43;;;20.30;;
12908;SDS011;6522;49.622;6.126;2023-07-20T10:37:00;21.40;;;19.90;;
12908;SDS011;6522;49.622;6.126;2023-07-20T10:39:46;20.90;;;19.67;;
12908;SDS011;6522;49.622;6.126;2023-07-20T10:42:33;20.60;;;19.60;;
12908;SDS011;6522;49.622;6.126;2023-07-20T10:45:20;21.70;;;20.57;;
12908;SDS011;6522;49.622;6.126;2023-07-20T10:48:16;18.40;;;17.30;;
12908;SDS011;6522;49.622;6.126;2023-07-20T10:51:12;18.50;;;17.30;;
12908;SDS011;6522;49.622;6.126;2023-07-20T10:53:59;20.00;;;19.07;;
12908;SDS011;6522;49.622;6.126;2023-07-20T10:56:48;20.80;;;19.80;;
12908;SDS011;6522;49.622;6.126;2023-07-20T11:02:23;20.27;;;19.17;;
12908;SDS011;6522;49.622;6.126;2023-07-20T11:05:31;20.27;;;19.27;;
12908;SDS011;6522;49.622;6.126;2023-07-20T11:07:56;19.87;;;18.97;;
12908;SDS011;6522;49.622;6.126;2023-07-20T11:10:43;20.40;;;19.50;;
12908;SDS011;6522;49.622;6.126;2023-07-20T11:13:30;20.00;;;19.10;;
12908;SDS011;6522;49.622;6.126;2023-07-20T11:16:17;17.48;;;16.67;;
12908;SDS011;6522;49.622;6.126;2023-07-20T11:19:04;19.30;;;18.40;;
12908;SDS011;6522;49.622;6.126;2023-07-20T11:21:54;19.90;;;18.90;;
12908;SDS011;6522;49.622;6.126;2023-07-20T11:24:40;19.93;;;18.93;;
12908;SDS011;6522;49.622;6.126;2023-07-20T11:27:27;17.55;;;16.65;;
12908;SDS011;6522;49.622;6.126;2023-07-20T11:30:18;19.97;;;19.07;;
12908;SDS011;6522;49.622;6.126;2023-07-20T11:33:04;19.70;;;18.70;;
12908;SDS011;6522;49.622;6.126;2023-07-20T11:35:50;19.93;;;19.03;;
12908;SDS011;6522;49.622;6.126;2023-07-20T11:38:39;20.17;;;19.27;;
12908;SDS011;6522;49.622;6.126;2023-07-20T11:41:24;19.60;;;18.70;;
12908;SDS011;6522;49.622;6.126;2023-07-20T11:44:11;18.83;;;18.03;;
12908;SDS011;6522;49.622;6.126;2023-07-20T11:47:05;19.27;;;18.20;;
12908;SDS011;6522;49.622;6.126;2023-07-20T11:49:51;19.60;;;18.70;;
12908;SDS011;6522;49.622;6.126;2023-07-20T11:52:37;19.17;;;18.30;;
12908;SDS011;6522;49.622;6.126;2023-07-20T11:55:24;19.00;;;18.07;;
12908;SDS011;6522;49.622;6.126;2023-07-20T11:58:11;18.80;;;18.00;;
12908;SDS011;6522;49.622;6.126;2023-07-20T12:00:57;19.50;;;18.50;;
12908;SDS011;6522;49.622;6.126;2023-07-20T12:03:44;19.30;;;18.40;;
12908;SDS011;6522;49.622;6.126;2023-07-20T12:06:31;19.10;;;18.20;;
12908;SDS011;6522;49.622;6.126;2023-07-20T12:09:18;18.70;;;17.90;;
12908;SDS011;6522;49.622;6.126;2023-07-20T12:12:11;19.00;;;18.00;;
12908;SDS011;6522;49.622;6.126;2023-07-20T12:15:11;19.13;;;18.23;;
12908;SDS011;6522;49.622;6.126;2023-07-20T12:17:44;17.90;;;17.00;;
12908;SDS011;6522;49.622;6.126;2023-07-20T12:20:34;19.83;;;18.93;;
12908;SDS011;6522;49.622;6.126;2023-07-20T12:23:17;19.20;;;18.20;;
12908;SDS011;6522;49.622;6.126;2023-07-20T12:26:07;19.03;;;18.20;;
12908;SDS011;6522;49.622;6.126;2023-07-20T12:28:51;19.00;;;18.10;;
12908;SDS011;6522;49.622;6.126;2023-07-20T12:31:37;17.20;;;16.30;;
12908;SDS011;6522;49.622;6.126;2023-07-20T12:34:24;18.93;;;17.90;;
12908;SDS011;6522;49.622;6.126;2023-07-20T12:37:11;19.20;;;18.20;;
12908;SDS011;6522;49.622;6.126;2023-07-20T12:39:58;18.73;;;17.83;;
12908;SDS011;6522;49.622;6.126;2023-07-20T12:42:45;18.60;;;17.80;;
12908;SDS011;6522;49.622;6.126;2023-07-20T12:45:31;19.20;;;18.40;;
12908;SDS011;6522;49.622;6.126;2023-07-20T12:48:18;19.00;;;18.10;;
12908;SDS011;6522;49.622;6.126;2023-07-20T12:51:05;18.80;;;18.00;;
12908;SDS011;6522;49.622;6.126;2023-07-20T12:53:52;16.50;;;15.70;;
12908;SDS011;6522;49.622;6.126;2023-07-20T12:56:39;18.20;;;17.30;;
12908;SDS011;6522;49.622;6.126;2023-07-20T12:59:26;18.77;;;17.97;;
12908;SDS011;6522;49.622;6.126;2023-07-20T13:02:13;18.63;;;17.80;;
12908;SDS011;6522;49.622;6.126;2023-07-20T13:05:00;16.75;;;15.88;;
12908;SDS011;6522;49.622;6.126;2023-07-20T13:07:46;18.30;;;17.37;;
12908;SDS011;6522;49.622;6.126;2023-07-20T13:10:33;18.67;;;17.83;;
12908;SDS011;6522;49.622;6.126;2023-07-20T13:13:20;18.87;;;17.97;;
12908;SDS011;6522;49.622;6.126;2023-07-20T13:16:06;18.37;;;17.57;;
12908;SDS011;6522;49.622;6.126;2023-07-20T13:18:54;18.70;;;17.80;;
12908;SDS011;6522;49.622;6.126;2023-07-20T13:21:41;19.03;;;18.13;;
12908;SDS011;6522;49.622;6.126;2023-07-20T13:24:28;18.90;;;18.10;;
12908;SDS011;6522;49.622;6.126;2023-07-20T13:27:15;18.60;;;17.80;;
12908;SDS011;6522;49.622;6.126;2023-07-20T13:30:01;18.70;;;17.90;;
12908;SDS011;6522;49.622;6.126;2023-07-20T13:32:48;18.67;;;17.77;;
12908;SDS011;6522;49.622;6.126;2023-07-20T13:35:35;19.80;;;18.70;;
12908;SDS011;6522;49.622;6.126;2023-07-20T13:38:22;19.23;;;18.40;;
12908;SDS011;6522;49.622;6.126;2023-07-20T13:41:09;18.93;;;18.13;;
12908;SDS011;6522;49.622;6.126;2023-07-20T13:43:56;18.90;;;18.00;;
12908;SDS011;6522;49.622;6.126;2023-07-20T13:46:42;18.50;;;17.70;;
12908;SDS011;6522;49.622;6.126;2023-07-20T13:49:29;18.90;;;18.10;;
12908;SDS011;6522;49.622;6.126;2023-07-20T13:52:15;18.60;;;17.80;;
12908;SDS011;6522;49.622;6.126;2023-07-20T13:55:02;16.40;;;15.60;;
12908;SDS011;6522;49.622;6.126;2023-07-20T13:57:49;19.00;;;18.20;;
12908;SDS011;6522;49.622;6.126;2023-07-20T14:00:35;19.30;;;18.40;;
12908;SDS011;6522;49.622;6.126;2023-07-20T14:03:22;18.20;;;17.40;;
12908;SDS011;6522;49.622;6.126;2023-07-20T14:06:09;19.00;;;18.10;;
12908;SDS011;6522;49.622;6.126;2023-07-20T14:08:56;18.80;;;18.00;;
12908;SDS011;6522;49.622;6.126;2023-07-20T14:11:42;18.73;;;17.93;;
12908;SDS011;6522;49.622;6.126;2023-07-20T14:14:29;18.10;;;17.20;;
12908;SDS011;6522;49.622;6.126;2023-07-20T14:17:16;18.40;;;17.50;;
12908;SDS011;6522;49.622;6.126;2023-07-20T14:20:03;19.10;;;18.30;;
12908;SDS011;6522;49.622;6.126;2023-07-20T14:22:50;19.37;;;18.40;;
12908;SDS011;6522;49.622;6.126;2023-07-20T14:25:37;19.63;;;18.73;;
12908;SDS011;6522;49.622;6.126;2023-07-20T14:28:23;16.70;;;15.90;;
12908;SDS011;6522;49.622;6.126;2023-07-20T14:31:10;19.30;;;18.40;;
12908;SDS011;6522;49.622;6.126;2023-07-20T14:33:57;20.33;;;19.43;;
12908;SDS011;6522;49.622;6.126;2023-07-20T14:36:43;20.00;;;19.10;;
12908;SDS011;6522;49.622;6.126;2023-07-20T14:39:30;20.03;;;19.13;;
12908;SDS011;6522;49.622;6.126;2023-07-20T14:42:17;19.60;;;18.70;;
12908;SDS011;6522;49.622;6.126;2023-07-20T14:45:04;19.20;;;18.30;;
12908;SDS011;6522;49.622;6.126;2023-07-20T14:47:51;19.40;;;18.60;;
12908;SDS011;6522;49.622;6.126;2023-07-20T14:50:38;19.73;;;18.90;;
12908;SDS011;6522;49.622;6.126;2023-07-20T14:53:25;20.27;;;19.37;;
12908;SDS011;6522;49.622;6.126;2023-07-20T14:56:12;19.20;;;18.30;;
12908;SDS011;6522;49.622;6.126;2023-07-20T14:58:59;19.50;;;18.40;;
12908;SDS011;6522;49.622;6.126;2023-07-20T15:01:46;19.10;;;18.20;;
12908;SDS011;6522;49.622;6.126;2023-07-20T15:04:33;19.57;;;18.67;;
12908;SDS011;6522;49.622;6.126;2023-07-20T15:07:20;18.77;;;17.97;;
12908;SDS011;6522;49.622;6.126;2023-07-20T15:10:07;18.90;;;18.00;;
12908;SDS011;6522;49.622;6.126;2023-07-20T15:12:53;20.20;;;19.30;;
12908;SDS011;6522;49.622;6.126;2023-07-20T15:15:40;20.23;;;19.33;;
12908;SDS011;6522;49.622;6.126;2023-07-20T15:18:27;20.20;;;19.20;;
12908;SDS011;6522;49.622;6.126;2023-07-20T15:21:14;18.70;;;17.90;;
12908;SDS011;6522;49.622;6.126;2023-07-20T15:24:01;18.83;;;18.00;;
12908;SDS011;6522;49.622;6.126;2023-07-20T15:26:48;19.60;;;18.70;;
12908;SDS011;6522;49.622;6.126;2023-07-20T15:29:34;19.90;;;19.00;;
12908;SDS011;6522;49.622;6.126;2023-07-20T15:32:21;17.80;;;16.90;;
12908;SDS011;6522;49.622;6.126;2023-07-20T15:35:08;19.87;;;18.87;;
12908;SDS011;6522;49.622;6.126;2023-07-20T15:37:55;19.30;;;18.50;;
12908;SDS011;6522;49.622;6.126;2023-07-20T15:40:42;19.77;;;18.87;;
12908;SDS011;6522;49.622;6.126;2023-07-20T15:43:29;20.30;;;19.40;;
12908;SDS011;6522;49.622;6.126;2023-07-20T15:49:05;19.70;;;18.60;;
12908;SDS011;6522;49.622;6.126;2023-07-20T15:51:52;19.07;;;18.23;;
12908;SDS011;6522;49.622;6.126;2023-07-20T15:54:39;18.80;;;18.00;;
12908;SDS011;6522;49.622;6.126;2023-07-20T15:57:26;20.37;;;19.27;;
12908;SDS011;6522;49.622;6.126;2023-07-20T16:00:12;20.70;;;19.80;;
12908;SDS011;6522;49.622;6.126;2023-07-20T16:02:59;20.30;;;19.20;;
12908;SDS011;6522;49.622;6.126;2023-07-20T16:05:46;19.20;;;18.40;;
12908;SDS011;6522;49.622;6.126;2023-07-20T16:08:33;20.50;;;19.50;;
12908;SDS011;6522;49.622;6.126;2023-07-20T16:11:20;20.30;;;19.40;;
12908;SDS011;6522;49.622;6.126;2023-07-20T16:14:07;20.10;;;19.20;;
12908;SDS011;6522;49.622;6.126;2023-07-20T16:16:54;20.30;;;19.40;;
12908;SDS011;6522;49.622;6.126;2023-07-20T16:19:40;19.70;;;18.80;;
12908;SDS011;6522;49.622;6.126;2023-07-20T16:22:27;19.43;;;18.53;;
12908;SDS011;6522;49.622;6.126;2023-07-20T16:25:14;19.93;;;18.83;;
12908;SDS011;6522;49.622;6.126;2023-07-20T16:28:01;20.07;;;19.10;;
12908;SDS011;6522;49.622;6.126;2023-07-20T16:30:48;20.10;;;19.10;;
12908;SDS011;6522;49.622;6.126;2023-07-20T16:33:35;17.50;;;16.60;;
12908;SDS011;6522;49.622;6.126;2023-07-20T16:36:21;19.13;;;18.23;;
12908;SDS011;6522;49.622;6.126;2023-07-20T16:39:08;17.30;;;16.50;;
12908;SDS011;6522;49.622;6.126;2023-07-20T16:41:55;20.23;;;19.33;;
12908;SDS011;6522;49.622;6.126;2023-07-20T16:44:42;20.00;;;19.10;;
12908;SDS011;6522;49.622;6.126;2023-07-20T16:47:29;17.08;;;16.27;;
12908;SDS011;6522;49.622;6.126;2023-07-20T16:50:16;20.10;;;19.20;;
12908;SDS011;6522;49.622;6.126;2023-07-20T16:53:02;20.07;;;18.90;;
12908;SDS011;6522;49.622;6.126;2023-07-20T16:55:50;19.40;;;18.50;;
12908;SDS011;6522;49.622;6.126;2023-07-20T16:58:36;19.70;;;18.80;;